sensor_id;sensor_type;location;lat;lon;timestamp;P1;durP1;ratioP1;P2;durP2;ratioP2
21305;SDS011;10812;51.838;5.838;2023-07-28T00:02:02;12.40;;;10.38;;
21305;SDS011;10812;51.838;5.838;2023-07-28T00:04:31;11.98;;;10.65;;
21305;SDS011;10812;51.838;5.838;2023-07-28T00:07:01;12.52;;;10.88;;
21305;SDS011;10812;51.838;5.838;2023-07-28T00:09:30;11.95;;;10.63;;
21305;SDS011;10812;51.838;5.838;2023-07-28T00:11:58;13.40;;;10.98;;
21305;SDS011;10812;51.838;5.838;2023-07-28T00:14:27;12.43;;;10.77;;
21305;SDS011;10812;51.838;5.838;2023-07-28T00:16:56;15.95;;;11.75;;
21305;SDS011;10812;51.838;5.838;2023-07-28T00:19:25;12.02;;;10.73;;
21305;SDS011;10812;51.838;5.838;2023-07-28T00:21:53;12.63;;;10.90;;
21305;SDS011;10812;51.838;5.838;2023-07-28T00:24:22;13.13;;;11.10;;
21305;SDS011;10812;51.838;5.838;2023-07-28T00:26:52;12.90;;;11.20;;
21305;SDS011;10812;51.838;5.838;2023-07-28T00:29:20;15.88;;;11.77;;
21305;SDS011;10812;51.838;5.838;2023-07-28T00:31:48;13.43;;;11.55;;
21305;SDS011;10812;51.838;5.838;2023-07-28T00:34:16;13.57;;;12.02;;
21305;SDS011;10812;51.838;5.838;2023-07-28T00:36:44;14.00;;;11.25;;
21305;SDS011;10812;51.838;5.838;2023-07-28T00:39:12;13.27;;;11.70;;
21305;SDS011;10812;51.838;5.838;2023-07-28T00:41:40;15.45;;;12.85;;
21305;SDS011;10812;51.838;5.838;2023-07-28T00:44:10;14.70;;;12.57;;
21305;SDS011;10812;51.838;5.838;2023-07-28T00:46:38;14.02;;;10.90;;
21305;SDS011;10812;51.838;5.838;2023-07-28T00:49:06;13.50;;;10.93;;
21305;SDS011;10812;51.838;5.838;2023-07-28T00:51:35;14.45;;;11.23;;
21305;SDS011;10812;51.838;5.838;2023-07-28T00:54:04;16.20;;;11.65;;
21305;SDS011;10812;51.838;5.838;2023-07-28T00:56:32;13.20;;;10.98;;
21305;SDS011;10812;51.838;5.838;2023-07-28T00:59:01;13.60;;;10.88;;
21305;SDS011;10812;51.838;5.838;2023-07-28T01:01:30;14.48;;;12.30;;
21305;SDS011;10812;51.838;5.838;2023-07-28T01:03:59;13.57;;;11.77;;
21305;SDS011;10812;51.838;5.838;2023-07-28T01:06:29;13.93;;;10.85;;
21305;SDS011;10812;51.838;5.838;2023-07-28T01:09:05;13.65;;;10.80;;
21305;SDS011;10812;51.838;5.838;2023-07-28T01:11:52;13.30;;;11.13;;
21305;SDS011;10812;51.838;5.838;2023-07-28T01:14:20;13.02;;;10.55;;
21305;SDS011;10812;51.838;5.838;2023-07-28T01:16:50;13.60;;;11.32;;
21305;SDS011;10812;51.838;5.838;2023-07-28T01:19:19;13.73;;;11.32;;
21305;SDS011;10812;51.838;5.838;2023-07-28T01:21:52;13.32;;;11.75;;
21305;SDS011;10812;51.838;5.838;2023-07-28T01:24:27;12.63;;;10.63;;
21305;SDS011;10812;51.838;5.838;2023-07-28T01:27:06;14.55;;;11.40;;
21305;SDS011;10812;51.838;5.838;2023-07-28T01:29:35;14.63;;;10.43;;
21305;SDS011;10812;51.838;5.838;2023-07-28T01:32:04;12.43;;;9.88;;
21305;SDS011;10812;51.838;5.838;2023-07-28T01:34:32;12.75;;;9.80;;
21305;SDS011;10812;51.838;5.838;2023-07-28T01:37:00;14.43;;;10.93;;
21305;SDS011;10812;51.838;5.838;2023-07-28T01:39:29;15.77;;;11.07;;
21305;SDS011;10812;51.838;5.838;2023-07-28T01:41:57;13.52;;;10.90;;
21305;SDS011;10812;51.838;5.838;2023-07-28T01:44:26;12.45;;;10.57;;
21305;SDS011;10812;51.838;5.838;2023-07-28T01:46:54;13.00;;;10.20;;
21305;SDS011;10812;51.838;5.838;2023-07-28T01:49:23;15.07;;;10.85;;
21305;SDS011;10812;51.838;5.838;2023-07-28T01:51:51;16.17;;;11.00;;
21305;SDS011;10812;51.838;5.838;2023-07-28T01:54:19;15.23;;;11.23;;
21305;SDS011;10812;51.838;5.838;2023-07-28T01:56:47;13.82;;;11.27;;
21305;SDS011;10812;51.838;5.838;2023-07-28T01:59:15;14.75;;;10.98;;
21305;SDS011;10812;51.838;5.838;2023-07-28T02:01:44;15.35;;;12.38;;
21305;SDS011;10812;51.838;5.838;2023-07-28T02:04:13;17.08;;;11.48;;
21305;SDS011;10812;51.838;5.838;2023-07-28T02:06:42;17.80;;;11.95;;
21305;SDS011;10812;51.838;5.838;2023-07-28T02:09:10;14.00;;;10.68;;
21305;SDS011;10812;51.838;5.838;2023-07-28T02:11:38;14.57;;;10.52;;
21305;SDS011;10812;51.838;5.838;2023-07-28T02:14:05;15.45;;;11.52;;
21305;SDS011;10812;51.838;5.838;2023-07-28T02:16:33;16.17;;;11.50;;
21305;SDS011;10812;51.838;5.838;2023-07-28T02:19:03;15.13;;;12.15;;
21305;SDS011;10812;51.838;5.838;2023-07-28T02:21:31;15.95;;;10.75;;
21305;SDS011;10812;51.838;5.838;2023-07-28T02:24:00;15.93;;;10.15;;
21305;SDS011;10812;51.838;5.838;2023-07-28T02:26:28;14.52;;;10.60;;
21305;SDS011;10812;51.838;5.838;2023-07-28T02:28:56;16.13;;;11.68;;
21305;SDS011;10812;51.838;5.838;2023-07-28T02:31:24;15.30;;;11.05;;
21305;SDS011;10812;51.838;5.838;2023-07-28T02:33:53;16.30;;;11.32;;
21305;SDS011;10812;51.838;5.838;2023-07-28T02:36:22;16.48;;;11.50;;
21305;SDS011;10812;51.838;5.838;2023-07-28T02:38:50;17.35;;;12.32;;
21305;SDS011;10812;51.838;5.838;2023-07-28T02:41:18;20.02;;;11.30;;
21305;SDS011;10812;51.838;5.838;2023-07-28T02:43:46;16.75;;;11.85;;
21305;SDS011;10812;51.838;5.838;2023-07-28T02:46:14;16.02;;;11.02;;
21305;SDS011;10812;51.838;5.838;2023-07-28T02:48:42;15.73;;;10.48;;
21305;SDS011;10812;51.838;5.838;2023-07-28T02:51:10;15.55;;;10.90;;
21305;SDS011;10812;51.838;5.838;2023-07-28T02:53:40;15.60;;;10.60;;
21305;SDS011;10812;51.838;5.838;2023-07-28T02:56:08;13.52;;;10.80;;
21305;SDS011;10812;51.838;5.838;2023-07-28T02:58:36;15.00;;;11.02;;
21305;SDS011;10812;51.838;5.838;2023-07-28T03:06:21;16.52;;;10.88;;
21305;SDS011;10812;51.838;5.838;2023-07-28T03:08:51;16.65;;;10.50;;
21305;SDS011;10812;51.838;5.838;2023-07-28T03:11:19;14.43;;;10.43;;
21305;SDS011;10812;51.838;5.838;2023-07-28T03:13:47;16.45;;;10.07;;
21305;SDS011;10812;51.838;5.838;2023-07-28T03:19:56;17.98;;;10.75;;
21305;SDS011;10812;51.838;5.838;2023-07-28T03:22:24;16.40;;;10.40;;
21305;SDS011;10812;51.838;5.838;2023-07-28T03:36:15;16.63;;;10.88;;
21305;SDS011;10812;51.838;5.838;2023-07-28T03:38:43;18.98;;;11.63;;
21305;SDS011;10812;51.838;5.838;2023-07-28T03:41:11;15.45;;;10.50;;
21305;SDS011;10812;51.838;5.838;2023-07-28T03:51:16;19.33;;;11.38;;
21305;SDS011;10812;51.838;5.838;2023-07-28T03:53:44;22.65;;;12.18;;
21305;SDS011;10812;51.838;5.838;2023-07-28T03:56:12;19.70;;;11.90;;
21305;SDS011;10812;51.838;5.838;2023-07-28T03:58:40;18.45;;;11.48;;
21305;SDS011;10812;51.838;5.838;2023-07-28T04:01:08;21.27;;;12.45;;
21305;SDS011;10812;51.838;5.838;2023-07-28T04:03:36;21.30;;;12.32;;
21305;SDS011;10812;51.838;5.838;2023-07-28T04:06:05;20.45;;;12.45;;
21305;SDS011;10812;51.838;5.838;2023-07-28T04:08:38;21.45;;;12.30;;
21305;SDS011;10812;51.838;5.838;2023-07-28T04:11:06;19.15;;;11.85;;
21305;SDS011;10812;51.838;5.838;2023-07-28T04:13:35;25.25;;;12.52;;
21305;SDS011;10812;51.838;5.838;2023-07-28T04:16:03;23.67;;;12.57;;
21305;SDS011;10812;51.838;5.838;2023-07-28T04:18:31;21.75;;;12.57;;
21305;SDS011;10812;51.838;5.838;2023-07-28T04:20:59;24.70;;;14.07;;
21305;SDS011;10812;51.838;5.838;2023-07-28T04:23:27;23.42;;;13.15;;
21305;SDS011;10812;51.838;5.838;2023-07-28T04:25:58;23.50;;;12.77;;
21305;SDS011;10812;51.838;5.838;2023-07-28T04:28:26;24.00;;;14.35;;
21305;SDS011;10812;51.838;5.838;2023-07-28T04:30:54;22.52;;;12.52;;
21305;SDS011;10812;51.838;5.838;2023-07-28T04:33:25;24.50;;;13.55;;
21305;SDS011;10812;51.838;5.838;2023-07-28T04:35:53;23.73;;;13.02;;
21305;SDS011;10812;51.838;5.838;2023-07-28T04:38:21;27.15;;;14.38;;
21305;SDS011;10812;51.838;5.838;2023-07-28T04:40:49;25.23;;;13.98;;
21305;SDS011;10812;51.838;5.838;2023-07-28T04:43:19;24.85;;;13.75;;
21305;SDS011;10812;51.838;5.838;2023-07-28T04:48:58;25.52;;;13.45;;
21305;SDS011;10812;51.838;5.838;2023-07-28T04:51:28;28.08;;;15.18;;
21305;SDS011;10812;51.838;5.838;2023-07-28T04:53:56;26.80;;;14.57;;
21305;SDS011;10812;51.838;5.838;2023-07-28T04:56:25;29.83;;;15.55;;
21305;SDS011;10812;51.838;5.838;2023-07-28T05:02:18;26.63;;;14.77;;
21305;SDS011;10812;51.838;5.838;2023-07-28T05:04:46;31.83;;;16.60;;
21305;SDS011;10812;51.838;5.838;2023-07-28T05:07:14;25.33;;;14.77;;
21305;SDS011;10812;51.838;5.838;2023-07-28T05:24:28;24.75;;;14.75;;
21305;SDS011;10812;51.838;5.838;2023-07-28T05:26:56;23.48;;;13.77;;
21305;SDS011;10812;51.838;5.838;2023-07-28T05:29:24;24.95;;;13.63;;
21305;SDS011;10812;51.838;5.838;2023-07-28T05:31:52;25.15;;;14.48;;
21305;SDS011;10812;51.838;5.838;2023-07-28T05:34:20;25.05;;;13.93;;
21305;SDS011;10812;51.838;5.838;2023-07-28T05:36:48;26.52;;;14.60;;
21305;SDS011;10812;51.838;5.838;2023-07-28T05:39:16;24.40;;;14.10;;
21305;SDS011;10812;51.838;5.838;2023-07-28T05:41:46;25.40;;;14.77;;
21305;SDS011;10812;51.838;5.838;2023-07-28T05:44:14;25.80;;;14.93;;
21305;SDS011;10812;51.838;5.838;2023-07-28T05:46:42;23.48;;;14.63;;
21305;SDS011;10812;51.838;5.838;2023-07-28T05:49:12;29.52;;;15.27;;
21305;SDS011;10812;51.838;5.838;2023-07-28T05:51:40;25.15;;;14.35;;
21305;SDS011;10812;51.838;5.838;2023-07-28T05:54:08;24.92;;;14.40;;
21305;SDS011;10812;51.838;5.838;2023-07-28T05:56:36;24.15;;;14.63;;
21305;SDS011;10812;51.838;5.838;2023-07-28T05:59:06;23.40;;;13.60;;
21305;SDS011;10812;51.838;5.838;2023-07-28T06:01:34;29.60;;;15.25;;
21305;SDS011;10812;51.838;5.838;2023-07-28T06:04:02;26.90;;;14.60;;
21305;SDS011;10812;51.838;5.838;2023-07-28T06:06:31;22.33;;;13.73;;
21305;SDS011;10812;51.838;5.838;2023-07-28T06:08:59;20.48;;;13.27;;
21305;SDS011;10812;51.838;5.838;2023-07-28T06:11:27;24.58;;;14.85;;
21305;SDS011;10812;51.838;5.838;2023-07-28T06:13:55;22.45;;;13.02;;
21305;SDS011;10812;51.838;5.838;2023-07-28T06:16:25;22.25;;;13.73;;
21305;SDS011;10812;51.838;5.838;2023-07-28T06:18:54;23.95;;;14.13;;
21305;SDS011;10812;51.838;5.838;2023-07-28T06:21:22;24.92;;;14.38;;
21305;SDS011;10812;51.838;5.838;2023-07-28T06:23:50;22.52;;;13.88;;
21305;SDS011;10812;51.838;5.838;2023-07-28T06:26:18;23.73;;;13.90;;
21305;SDS011;10812;51.838;5.838;2023-07-28T06:28:46;25.27;;;14.13;;
21305;SDS011;10812;51.838;5.838;2023-07-28T06:31:14;26.50;;;14.52;;
21305;SDS011;10812;51.838;5.838;2023-07-28T06:33:44;25.60;;;14.88;;
21305;SDS011;10812;51.838;5.838;2023-07-28T06:36:12;20.67;;;14.45;;
21305;SDS011;10812;51.838;5.838;2023-07-28T06:38:40;22.02;;;14.20;;
21305;SDS011;10812;51.838;5.838;2023-07-28T06:41:10;23.35;;;14.55;;
21305;SDS011;10812;51.838;5.838;2023-07-28T06:43:38;24.73;;;13.70;;
21305;SDS011;10812;51.838;5.838;2023-07-28T06:46:07;24.98;;;14.15;;
21305;SDS011;10812;51.838;5.838;2023-07-28T06:48:35;23.65;;;14.95;;
21305;SDS011;10812;51.838;5.838;2023-07-28T06:51:05;26.45;;;14.65;;
21305;SDS011;10812;51.838;5.838;2023-07-28T06:53:33;26.42;;;14.98;;
21305;SDS011;10812;51.838;5.838;2023-07-28T06:56:01;25.27;;;13.98;;
21305;SDS011;10812;51.838;5.838;2023-07-28T06:58:30;25.35;;;14.10;;
21305;SDS011;10812;51.838;5.838;2023-07-28T07:00:58;22.23;;;13.40;;
21305;SDS011;10812;51.838;5.838;2023-07-28T07:03:26;23.38;;;13.88;;
21305;SDS011;10812;51.838;5.838;2023-07-28T07:05:54;18.73;;;12.68;;
21305;SDS011;10812;51.838;5.838;2023-07-28T07:08:24;22.60;;;13.07;;
21305;SDS011;10812;51.838;5.838;2023-07-28T07:10:53;26.33;;;14.32;;
21305;SDS011;10812;51.838;5.838;2023-07-28T07:13:21;23.80;;;15.18;;
21305;SDS011;10812;51.838;5.838;2023-07-28T07:15:49;22.50;;;13.88;;
21305;SDS011;10812;51.838;5.838;2023-07-28T07:18:17;25.67;;;14.18;;
21305;SDS011;10812;51.838;5.838;2023-07-28T07:20:46;21.75;;;13.10;;
21305;SDS011;10812;51.838;5.838;2023-07-28T07:23:14;19.90;;;12.60;;
21305;SDS011;10812;51.838;5.838;2023-07-28T07:25:43;19.73;;;13.70;;
21305;SDS011;10812;51.838;5.838;2023-07-28T07:28:11;20.33;;;12.50;;
21305;SDS011;10812;51.838;5.838;2023-07-28T07:30:39;20.17;;;11.65;;
21305;SDS011;10812;51.838;5.838;2023-07-28T07:33:07;21.35;;;12.85;;
21305;SDS011;10812;51.838;5.838;2023-07-28T07:35:36;22.15;;;12.50;;
21305;SDS011;10812;51.838;5.838;2023-07-28T07:38:04;21.55;;;11.70;;
21305;SDS011;10812;51.838;5.838;2023-07-28T07:48:26;18.40;;;12.98;;
21305;SDS011;10812;51.838;5.838;2023-07-28T07:50:54;19.00;;;12.25;;
21305;SDS011;10812;51.838;5.838;2023-07-28T07:53:22;20.48;;;11.75;;
21305;SDS011;10812;51.838;5.838;2023-07-28T07:55:50;16.65;;;10.68;;
21305;SDS011;10812;51.838;5.838;2023-07-28T07:58:18;19.42;;;12.57;;
21305;SDS011;10812;51.838;5.838;2023-07-28T08:00:46;17.38;;;11.07;;
21305;SDS011;10812;51.838;5.838;2023-07-28T08:03:15;18.30;;;11.82;;
21305;SDS011;10812;51.838;5.838;2023-07-28T08:05:45;14.65;;;10.18;;
21305;SDS011;10812;51.838;5.838;2023-07-28T08:08:13;16.38;;;10.77;;
21305;SDS011;10812;51.838;5.838;2023-07-28T08:10:43;13.77;;;9.80;;
21305;SDS011;10812;51.838;5.838;2023-07-28T08:13:11;15.05;;;10.23;;
21305;SDS011;10812;51.838;5.838;2023-07-28T08:15:39;14.55;;;10.35;;
21305;SDS011;10812;51.838;5.838;2023-07-28T08:18:08;14.32;;;9.43;;
21305;SDS011;10812;51.838;5.838;2023-07-28T08:20:36;15.07;;;10.52;;
21305;SDS011;10812;51.838;5.838;2023-07-28T08:23:05;14.00;;;10.38;;
21305;SDS011;10812;51.838;5.838;2023-07-28T08:25:34;14.23;;;10.25;;
21305;SDS011;10812;51.838;5.838;2023-07-28T08:28:03;14.40;;;10.40;;
21305;SDS011;10812;51.838;5.838;2023-07-28T08:30:31;13.95;;;10.10;;
21305;SDS011;10812;51.838;5.838;2023-07-28T08:33:00;13.90;;;10.30;;
21305;SDS011;10812;51.838;5.838;2023-07-28T08:35:28;14.48;;;10.55;;
21305;SDS011;10812;51.838;5.838;2023-07-28T08:37:56;14.57;;;9.93;;
21305;SDS011;10812;51.838;5.838;2023-07-28T08:40:27;14.63;;;9.73;;
21305;SDS011;10812;51.838;5.838;2023-07-28T08:42:55;14.93;;;11.20;;
21305;SDS011;10812;51.838;5.838;2023-07-28T08:45:23;11.93;;;10.45;;
21305;SDS011;10812;51.838;5.838;2023-07-28T08:47:51;16.40;;;11.10;;
21305;SDS011;10812;51.838;5.838;2023-07-28T08:50:20;19.10;;;11.27;;
21305;SDS011;10812;51.838;5.838;2023-07-28T08:52:49;14.32;;;11.02;;
21305;SDS011;10812;51.838;5.838;2023-07-28T08:55:18;17.08;;;11.65;;
21305;SDS011;10812;51.838;5.838;2023-07-28T08:57:47;15.00;;;10.43;;
21305;SDS011;10812;51.838;5.838;2023-07-28T09:00:15;15.38;;;11.15;;
21305;SDS011;10812;51.838;5.838;2023-07-28T09:02:44;15.48;;;10.98;;
21305;SDS011;10812;51.838;5.838;2023-07-28T09:05:17;14.73;;;11.02;;
21305;SDS011;10812;51.838;5.838;2023-07-28T09:07:46;16.23;;;11.70;;
21305;SDS011;10812;51.838;5.838;2023-07-28T09:10:15;14.23;;;11.55;;
21305;SDS011;10812;51.838;5.838;2023-07-28T09:12:48;14.65;;;11.05;;
21305;SDS011;10812;51.838;5.838;2023-07-28T09:15:17;15.57;;;12.55;;
21305;SDS011;10812;51.838;5.838;2023-07-28T09:17:47;15.95;;;11.43;;
21305;SDS011;10812;51.838;5.838;2023-07-28T09:20:15;16.13;;;11.95;;
21305;SDS011;10812;51.838;5.838;2023-07-28T09:22:44;15.00;;;12.30;;
21305;SDS011;10812;51.838;5.838;2023-07-28T09:25:13;15.18;;;12.35;;
21305;SDS011;10812;51.838;5.838;2023-07-28T09:27:50;14.63;;;11.93;;
21305;SDS011;10812;51.838;5.838;2023-07-28T09:30:19;15.75;;;12.38;;
21305;SDS011;10812;51.838;5.838;2023-07-28T09:32:49;16.13;;;12.20;;
21305;SDS011;10812;51.838;5.838;2023-07-28T09:35:19;16.40;;;12.40;;
21305;SDS011;10812;51.838;5.838;2023-07-28T09:37:48;14.23;;;11.43;;
21305;SDS011;10812;51.838;5.838;2023-07-28T09:40:20;13.23;;;11.82;;
21305;SDS011;10812;51.838;5.838;2023-07-28T09:42:50;12.98;;;11.30;;
21305;SDS011;10812;51.838;5.838;2023-07-28T09:45:22;12.98;;;11.05;;
21305;SDS011;10812;51.838;5.838;2023-07-28T09:47:54;15.23;;;11.60;;
21305;SDS011;10812;51.838;5.838;2023-07-28T09:50:25;17.85;;;12.40;;
21305;SDS011;10812;51.838;5.838;2023-07-28T09:52:56;14.13;;;11.38;;
21305;SDS011;10812;51.838;5.838;2023-07-28T09:55:28;17.10;;;12.95;;
21305;SDS011;10812;51.838;5.838;2023-07-28T09:57:59;14.77;;;12.45;;
21305;SDS011;10812;51.838;5.838;2023-07-28T10:00:32;15.13;;;12.68;;
21305;SDS011;10812;51.838;5.838;2023-07-28T10:03:01;13.85;;;11.80;;
21305;SDS011;10812;51.838;5.838;2023-07-28T10:05:30;12.05;;;10.27;;
21305;SDS011;10812;51.838;5.838;2023-07-28T10:08:00;12.18;;;10.55;;
21305;SDS011;10812;51.838;5.838;2023-07-28T10:10:30;14.75;;;11.55;;
21305;SDS011;10812;51.838;5.838;2023-07-28T10:13:00;14.02;;;10.88;;
21305;SDS011;10812;51.838;5.838;2023-07-28T10:15:29;13.52;;;10.65;;
21305;SDS011;10812;51.838;5.838;2023-07-28T10:17:59;13.40;;;11.75;;
21305;SDS011;10812;51.838;5.838;2023-07-28T10:20:32;12.00;;;10.55;;
21305;SDS011;10812;51.838;5.838;2023-07-28T10:23:02;11.05;;;9.27;;
21305;SDS011;10812;51.838;5.838;2023-07-28T10:25:32;10.18;;;9.13;;
21305;SDS011;10812;51.838;5.838;2023-07-28T10:28:03;10.05;;;9.15;;
21305;SDS011;10812;51.838;5.838;2023-07-28T10:30:36;10.38;;;9.27;;
21305;SDS011;10812;51.838;5.838;2023-07-28T10:33:05;8.75;;;7.53;;
21305;SDS011;10812;51.838;5.838;2023-07-28T10:35:34;9.23;;;8.20;;
21305;SDS011;10812;51.838;5.838;2023-07-28T10:41:06;9.18;;;8.25;;
21305;SDS011;10812;51.838;5.838;2023-07-28T10:43:37;8.45;;;7.65;;
21305;SDS011;10812;51.838;5.838;2023-07-28T10:46:07;9.43;;;7.78;;
21305;SDS011;10812;51.838;5.838;2023-07-28T10:48:36;10.00;;;8.70;;
21305;SDS011;10812;51.838;5.838;2023-07-28T10:51:08;10.23;;;9.15;;
21305;SDS011;10812;51.838;5.838;2023-07-28T10:53:37;10.05;;;8.55;;
21305;SDS011;10812;51.838;5.838;2023-07-28T10:56:06;10.05;;;8.57;;
21305;SDS011;10812;51.838;5.838;2023-07-28T10:58:38;10.45;;;8.88;;
21305;SDS011;10812;51.838;5.838;2023-07-28T11:01:06;10.73;;;9.43;;
21305;SDS011;10812;51.838;5.838;2023-07-28T11:03:35;9.20;;;8.25;;
21305;SDS011;10812;51.838;5.838;2023-07-28T11:06:03;9.40;;;7.88;;
21305;SDS011;10812;51.838;5.838;2023-07-28T11:08:32;7.82;;;7.03;;
21305;SDS011;10812;51.838;5.838;2023-07-28T11:11:02;9.15;;;8.07;;
21305;SDS011;10812;51.838;5.838;2023-07-28T11:13:32;8.93;;;8.02;;
21305;SDS011;10812;51.838;5.838;2023-07-28T11:16:08;9.43;;;8.43;;
21305;SDS011;10812;51.838;5.838;2023-07-28T11:18:38;10.45;;;8.05;;
21305;SDS011;10812;51.838;5.838;2023-07-28T11:21:06;8.25;;;6.80;;
21305;SDS011;10812;51.838;5.838;2023-07-28T11:23:34;8.27;;;7.38;;
21305;SDS011;10812;51.838;5.838;2023-07-28T11:26:02;9.55;;;8.07;;
21305;SDS011;10812;51.838;5.838;2023-07-28T11:28:32;8.43;;;7.63;;
21305;SDS011;10812;51.838;5.838;2023-07-28T11:31:01;9.05;;;8.02;;
21305;SDS011;10812;51.838;5.838;2023-07-28T11:33:31;8.60;;;7.72;;
21305;SDS011;10812;51.838;5.838;2023-07-28T11:35:59;8.18;;;7.10;;
21305;SDS011;10812;51.838;5.838;2023-07-28T11:38:27;9.35;;;7.13;;
21305;SDS011;10812;51.838;5.838;2023-07-28T11:40:57;7.28;;;6.57;;
21305;SDS011;10812;51.838;5.838;2023-07-28T11:43:25;7.88;;;7.07;;
21305;SDS011;10812;51.838;5.838;2023-07-28T11:45:53;6.85;;;6.03;;
21305;SDS011;10812;51.838;5.838;2023-07-28T11:48:21;7.65;;;6.80;;
21305;SDS011;10812;51.838;5.838;2023-07-28T11:50:51;7.68;;;6.90;;
21305;SDS011;10812;51.838;5.838;2023-07-28T11:53:22;8.18;;;7.28;;
21305;SDS011;10812;51.838;5.838;2023-07-28T11:55:50;8.10;;;7.30;;
21305;SDS011;10812;51.838;5.838;2023-07-28T11:58:18;7.72;;;6.65;;
21305;SDS011;10812;51.838;5.838;2023-07-28T12:00:50;7.80;;;6.38;;
21305;SDS011;10812;51.838;5.838;2023-07-28T12:03:19;7.38;;;6.63;;
21305;SDS011;10812;51.838;5.838;2023-07-28T12:06:03;8.65;;;7.78;;
21305;SDS011;10812;51.838;5.838;2023-07-28T12:08:39;7.20;;;5.97;;
21305;SDS011;10812;51.838;5.838;2023-07-28T12:11:11;7.03;;;6.32;;
21305;SDS011;10812;51.838;5.838;2023-07-28T12:13:49;7.38;;;6.57;;
21305;SDS011;10812;51.838;5.838;2023-07-28T12:16:31;7.68;;;6.97;;
21305;SDS011;10812;51.838;5.838;2023-07-28T12:19:02;8.02;;;7.15;;
21305;SDS011;10812;51.838;5.838;2023-07-28T12:21:32;7.07;;;6.38;;
21305;SDS011;10812;51.838;5.838;2023-07-28T12:24:01;6.90;;;6.22;;
21305;SDS011;10812;51.838;5.838;2023-07-28T12:26:32;6.40;;;5.72;;
21305;SDS011;10812;51.838;5.838;2023-07-28T12:29:05;7.53;;;6.72;;
21305;SDS011;10812;51.838;5.838;2023-07-28T12:31:37;8.50;;;6.57;;
21305;SDS011;10812;51.838;5.838;2023-07-28T12:34:08;7.82;;;7.10;;
21305;SDS011;10812;51.838;5.838;2023-07-28T12:36:51;8.25;;;7.43;;
21305;SDS011;10812;51.838;5.838;2023-07-28T12:39:20;8.18;;;7.38;;
21305;SDS011;10812;51.838;5.838;2023-07-28T12:41:52;8.95;;;7.50;;
21305;SDS011;10812;51.838;5.838;2023-07-28T12:44:23;8.60;;;7.70;;
21305;SDS011;10812;51.838;5.838;2023-07-28T12:46:54;8.73;;;7.82;;
21305;SDS011;10812;51.838;5.838;2023-07-28T12:49:22;8.32;;;7.43;;
21305;SDS011;10812;51.838;5.838;2023-07-28T12:51:52;9.95;;;7.97;;
21305;SDS011;10812;51.838;5.838;2023-07-28T12:54:23;9.05;;;8.15;;
21305;SDS011;10812;51.838;5.838;2023-07-28T12:56:51;10.52;;;8.07;;
21305;SDS011;10812;51.838;5.838;2023-07-28T12:59:36;9.27;;;8.35;;
21305;SDS011;10812;51.838;5.838;2023-07-28T13:02:08;10.55;;;8.13;;
21305;SDS011;10812;51.838;5.838;2023-07-28T13:04:36;9.98;;;8.40;;
21305;SDS011;10812;51.838;5.838;2023-07-28T13:07:06;11.10;;;8.50;;
21305;SDS011;10812;51.838;5.838;2023-07-28T13:09:37;9.23;;;8.23;;
21305;SDS011;10812;51.838;5.838;2023-07-28T13:12:08;9.15;;;8.18;;
21305;SDS011;10812;51.838;5.838;2023-07-28T13:14:39;9.32;;;8.30;;
21305;SDS011;10812;51.838;5.838;2023-07-28T13:17:07;8.23;;;7.43;;
21305;SDS011;10812;51.838;5.838;2023-07-28T13:19:35;8.85;;;7.95;;
21305;SDS011;10812;51.838;5.838;2023-07-28T13:22:04;9.77;;;8.18;;
21305;SDS011;10812;51.838;5.838;2023-07-28T13:24:36;9.52;;;8.57;;
21305;SDS011;10812;51.838;5.838;2023-07-28T13:27:05;9.52;;;8.45;;
21305;SDS011;10812;51.838;5.838;2023-07-28T13:29:33;8.73;;;7.80;;
21305;SDS011;10812;51.838;5.838;2023-07-28T13:32:01;9.82;;;8.82;;
21305;SDS011;10812;51.838;5.838;2023-07-28T13:34:29;9.10;;;8.18;;
21305;SDS011;10812;51.838;5.838;2023-07-28T13:36:57;8.32;;;7.53;;
21305;SDS011;10812;51.838;5.838;2023-07-28T13:39:27;12.45;;;9.80;;
21305;SDS011;10812;51.838;5.838;2023-07-28T13:41:55;10.02;;;8.40;;
21305;SDS011;10812;51.838;5.838;2023-07-28T13:44:23;10.10;;;7.65;;
21305;SDS011;10812;51.838;5.838;2023-07-28T13:46:57;8.88;;;7.68;;
21305;SDS011;10812;51.838;5.838;2023-07-28T13:49:25;11.38;;;8.73;;
21305;SDS011;10812;51.838;5.838;2023-07-28T13:51:54;9.00;;;8.10;;
21305;SDS011;10812;51.838;5.838;2023-07-28T13:54:26;8.82;;;7.93;;
21305;SDS011;10812;51.838;5.838;2023-07-28T13:56:54;9.32;;;8.02;;
21305;SDS011;10812;51.838;5.838;2023-07-28T13:59:25;10.25;;;7.30;;
21305;SDS011;10812;51.838;5.838;2023-07-28T14:01:53;9.27;;;8.23;;
21305;SDS011;10812;51.838;5.838;2023-07-28T14:04:24;8.80;;;7.75;;
21305;SDS011;10812;51.838;5.838;2023-07-28T14:06:54;10.27;;;7.97;;
21305;SDS011;10812;51.838;5.838;2023-07-28T14:09:23;9.32;;;8.43;;
21305;SDS011;10812;51.838;5.838;2023-07-28T14:11:52;9.73;;;7.70;;
21305;SDS011;10812;51.838;5.838;2023-07-28T14:14:20;9.43;;;7.70;;
21305;SDS011;10812;51.838;5.838;2023-07-28T14:16:48;8.18;;;7.22;;
21305;SDS011;10812;51.838;5.838;2023-07-28T14:19:16;7.20;;;6.50;;
21305;SDS011;10812;51.838;5.838;2023-07-28T14:21:44;8.23;;;7.40;;
21305;SDS011;10812;51.838;5.838;2023-07-28T14:24:13;9.18;;;8.27;;
21305;SDS011;10812;51.838;5.838;2023-07-28T14:26:41;8.20;;;7.20;;
21305;SDS011;10812;51.838;5.838;2023-07-28T14:29:10;8.43;;;7.28;;
21305;SDS011;10812;51.838;5.838;2023-07-28T14:31:38;8.80;;;7.07;;
21305;SDS011;10812;51.838;5.838;2023-07-28T14:34:07;9.88;;;7.53;;
21305;SDS011;10812;51.838;5.838;2023-07-28T14:36:35;9.32;;;6.93;;
21305;SDS011;10812;51.838;5.838;2023-07-28T14:39:04;10.23;;;7.80;;
21305;SDS011;10812;51.838;5.838;2023-07-28T14:41:32;7.18;;;6.45;;
21305;SDS011;10812;51.838;5.838;2023-07-28T14:44:01;8.55;;;7.35;;
21305;SDS011;10812;51.838;5.838;2023-07-28T14:46:30;9.57;;;7.20;;
21305;SDS011;10812;51.838;5.838;2023-07-28T14:48:59;8.57;;;7.22;;
21305;SDS011;10812;51.838;5.838;2023-07-28T14:51:27;7.60;;;6.75;;
21305;SDS011;10812;51.838;5.838;2023-07-28T14:53:55;6.03;;;5.43;;
21305;SDS011;10812;51.838;5.838;2023-07-28T14:56:23;7.10;;;5.30;;
21305;SDS011;10812;51.838;5.838;2023-07-28T14:58:51;5.57;;;5.07;;
21305;SDS011;10812;51.838;5.838;2023-07-28T15:01:19;6.78;;;6.07;;
21305;SDS011;10812;51.838;5.838;2023-07-28T15:03:49;7.60;;;5.80;;
21305;SDS011;10812;51.838;5.838;2023-07-28T15:06:17;5.90;;;5.40;;
21305;SDS011;10812;51.838;5.838;2023-07-28T15:08:45;7.43;;;5.90;;
21305;SDS011;10812;51.838;5.838;2023-07-28T15:11:14;5.88;;;5.38;;
21305;SDS011;10812;51.838;5.838;2023-07-28T15:13:44;8.75;;;6.82;;
21305;SDS011;10812;51.838;5.838;2023-07-28T15:16:12;9.57;;;7.50;;
21305;SDS011;10812;51.838;5.838;2023-07-28T15:18:40;12.82;;;8.05;;
21305;SDS011;10812;51.838;5.838;2023-07-28T15:21:12;9.02;;;7.90;;
21305;SDS011;10812;51.838;5.838;2023-07-28T15:23:40;9.88;;;8.88;;
21305;SDS011;10812;51.838;5.838;2023-07-28T15:26:08;9.50;;;8.20;;
21305;SDS011;10812;51.838;5.838;2023-07-28T15:28:36;9.75;;;7.97;;
21305;SDS011;10812;51.838;5.838;2023-07-28T15:31:05;7.93;;;7.10;;
21305;SDS011;10812;51.838;5.838;2023-07-28T15:33:33;4.05;;;3.53;;
21305;SDS011;10812;51.838;5.838;2023-07-28T15:36:01;3.08;;;2.78;;
21305;SDS011;10812;51.838;5.838;2023-07-28T15:38:30;2.47;;;2.28;;
21305;SDS011;10812;51.838;5.838;2023-07-28T15:40:58;3.13;;;2.42;;
21305;SDS011;10812;51.838;5.838;2023-07-28T15:43:26;2.65;;;2.40;;